createdAt,value
2023-05-11T00:01:19.618Z,3.15
2023-05-11T00:03:46.914Z,3.38
2023-05-11T00:06:14.171Z,2.92
2023-05-11T00:08:41.349Z,2.85
2023-05-11T00:11:09.403Z,2.65
2023-05-11T00:13:36.655Z,2.72
2023-05-11T00:16:04.773Z,3.25
2023-05-11T00:18:32.208Z,2.47
2023-05-11T00:20:59.592Z,3.58
2023-05-11T00:23:26.924Z,3.65
2023-05-11T00:25:54.410Z,2.80
2023-05-11T00:28:22.952Z,4.38
2023-05-11T00:30:50.522Z,2.97
2023-05-11T00:33:18.614Z,3.15
2023-05-11T00:35:45.936Z,2.85
2023-05-11T00:38:13.161Z,4.25
2023-05-11T00:40:40.511Z,3.40
2023-05-11T00:43:07.815Z,3.75
2023-05-11T00:45:36.425Z,3.15
2023-05-11T00:48:04.483Z,3.47
2023-05-11T00:50:32.021Z,3.67
2023-05-11T00:53:00.713Z,4.10
2023-05-11T00:55:28.980Z,4.03
2023-05-11T00:57:56.367Z,3.60
2023-05-11T01:00:23.730Z,3.85
2023-05-11T01:02:52.173Z,3.97
2023-05-11T01:05:20.298Z,4.00
2023-05-11T01:08:12.907Z,4.72
2023-05-11T01:10:58.610Z,4.07
2023-05-11T01:13:36.522Z,4.70
2023-05-11T01:16:24.339Z,4.88
2023-05-11T01:21:34.755Z,5.30
2023-05-11T01:24:26.994Z,6.25
2023-05-11T01:27:04.163Z,6.03
2023-05-11T01:30:04.625Z,7.78
2023-05-11T01:32:36.344Z,9.45
2023-05-11T01:35:13.882Z,9.48
2023-05-11T01:37:46.707Z,10.38
2023-05-11T01:40:17.519Z,8.20
2023-05-11T01:43:08.584Z,8.30
2023-05-11T01:45:41.048Z,9.63
2023-05-11T01:48:14.559Z,9.98
2023-05-11T01:50:43.530Z,10.40
2023-05-11T01:53:13.807Z,7.88
2023-05-11T01:55:42.522Z,9.68
2023-05-11T01:58:13.430Z,8.52
2023-05-11T02:00:43.280Z,9.13
2023-05-11T02:03:12.867Z,9.50
2023-05-11T02:05:43.022Z,7.30
2023-05-11T02:08:12.415Z,8.57
2023-05-11T02:10:41.907Z,8.40
2023-05-11T02:13:10.378Z,9.02
2023-05-11T02:15:42.341Z,8.55
2023-05-11T02:18:15.964Z,8.13
2023-05-11T02:20:46.023Z,8.30
2023-05-11T02:23:14.827Z,6.87
2023-05-11T02:25:43.188Z,7.25
2023-05-11T02:28:10.601Z,6.55
2023-05-11T02:30:50.090Z,5.32
2023-05-11T02:33:39.486Z,5.47
2023-05-11T02:36:08.239Z,6.60
2023-05-11T02:38:38.634Z,6.05
2023-05-11T02:41:14.737Z,5.20
2023-05-11T02:43:47.029Z,4.32
2023-05-11T02:46:20.287Z,4.63
2023-05-11T02:48:54.618Z,4.70
2023-05-11T02:51:30.944Z,4.28
2023-05-11T02:54:00.974Z,4.30
2023-05-11T02:56:31.113Z,4.47
2023-05-11T02:58:58.893Z,4.03
2023-05-11T03:01:30.627Z,4.15
2023-05-11T03:03:58.663Z,4.30
2023-05-11T03:06:27.885Z,4.43
2023-05-11T03:08:55.404Z,3.83
2023-05-11T03:11:23.889Z,3.33
2023-05-11T03:13:51.398Z,3.80
2023-05-11T03:16:21.249Z,3.75
2023-05-11T03:18:50.838Z,3.53
2023-05-11T03:21:21.503Z,3.10
2023-05-11T03:23:49.939Z,2.80
2023-05-11T03:26:22.242Z,4.00
2023-05-11T03:28:52.480Z,2.70
2023-05-11T03:31:19.896Z,2.90
2023-05-11T03:33:47.285Z,3.83
2023-05-11T03:36:15.811Z,2.90
2023-05-11T03:38:48.910Z,3.05
2023-05-11T03:41:19.620Z,3.33
2023-05-11T03:43:53.739Z,2.70
2023-05-11T03:46:24.613Z,3.90
2023-05-11T03:48:53.091Z,3.95
2023-05-11T03:51:24.323Z,3.03
2023-05-11T03:53:51.617Z,3.40
2023-05-11T03:56:21.618Z,3.83
2023-05-11T03:58:49.253Z,4.00
2023-05-11T04:01:16.633Z,4.25
2023-05-11T04:03:50.150Z,4.07
2023-05-11T04:06:19.187Z,3.80
2023-05-11T04:08:50.703Z,3.05
2023-05-11T04:11:18.099Z,2.33
2023-05-11T04:13:45.364Z,3.28
2023-05-11T04:16:12.808Z,2.75
2023-05-11T04:18:40.257Z,3.20
2023-05-11T04:21:07.516Z,2.92
2023-05-11T04:23:35.043Z,3.17
2023-05-11T04:26:02.358Z,3.25
2023-05-11T04:28:29.717Z,3.25
2023-05-11T04:30:58.232Z,3.05
2023-05-11T04:33:25.936Z,3.00
2023-05-11T04:35:55.551Z,3.03
2023-05-11T04:38:25.247Z,3.10
2023-05-11T04:40:53.829Z,3.42
2023-05-11T04:43:21.202Z,3.83
2023-05-11T04:45:50.259Z,3.95
2023-05-11T04:48:22.481Z,4.65
2023-05-11T04:50:49.910Z,5.05
2023-05-11T04:53:19.369Z,4.57
2023-05-11T04:55:47.760Z,5.03
2023-05-11T04:58:15.123Z,4.78
2023-05-11T05:00:42.628Z,5.13
2023-05-11T05:03:09.952Z,5.50
2023-05-11T05:05:37.178Z,5.22
2023-05-11T05:08:04.503Z,5.57
2023-05-11T05:10:31.771Z,4.80
2023-05-11T05:12:59.203Z,5.22
2023-05-11T05:15:26.841Z,3.90
2023-05-11T05:17:54.269Z,4.55
2023-05-11T05:20:21.790Z,3.85
2023-05-11T05:22:49.275Z,5.72
2023-05-11T05:25:16.945Z,5.68
2023-05-11T05:27:44.300Z,8.93
2023-05-11T05:30:17.604Z,12.82
2023-05-11T05:32:45.303Z,10.90
2023-05-11T05:35:12.517Z,11.63
2023-05-11T05:37:40.976Z,12.80
2023-05-11T05:40:09.149Z,12.27
2023-05-11T05:42:42.069Z,12.45
2023-05-11T05:45:14.599Z,11.68
2023-05-11T05:47:42.478Z,12.00
2023-05-11T05:50:10.202Z,10.20
2023-05-11T05:52:37.804Z,8.20
2023-05-11T05:55:06.007Z,9.93
2023-05-11T05:57:33.773Z,9.27
2023-05-11T06:00:01.854Z,10.02
2023-05-11T06:02:29.570Z,6.40
2023-05-11T06:04:56.966Z,6.70
2023-05-11T06:07:24.353Z,6.57
2023-05-11T06:09:51.571Z,9.40
2023-05-11T06:12:18.762Z,9.70
2023-05-11T06:14:48.557Z,11.50
2023-05-11T06:17:15.990Z,9.65
2023-05-11T06:19:45.206Z,9.77
2023-05-11T06:22:13.047Z,7.53
2023-05-11T06:24:40.334Z,6.57
2023-05-11T06:27:07.680Z,7.40
2023-05-11T06:29:35.211Z,6.55
2023-05-11T06:32:04.233Z,7.63
2023-05-11T06:34:33.388Z,6.43
2023-05-11T06:37:01.548Z,6.03
2023-05-11T06:39:29.294Z,5.90
2023-05-11T06:41:58.702Z,7.47
2023-05-11T06:44:29.332Z,6.03
2023-05-11T06:46:58.322Z,5.20
2023-05-11T06:49:25.616Z,4.75
2023-05-11T06:51:53.011Z,5.85
2023-05-11T06:54:22.845Z,5.45
2023-05-11T06:56:50.327Z,6.20
2023-05-11T06:59:17.629Z,5.88
2023-05-11T07:01:44.913Z,6.35
2023-05-11T07:04:12.253Z,5.13
2023-05-11T07:06:39.528Z,4.60
2023-05-11T07:09:06.745Z,5.15
2023-05-11T07:11:34.413Z,4.32
2023-05-11T07:14:01.676Z,4.20
2023-05-11T07:16:29.199Z,4.07
2023-05-11T07:18:56.503Z,4.00
2023-05-11T07:21:23.800Z,4.47
2023-05-11T07:23:51.000Z,4.25
2023-05-11T07:26:18.297Z,3.95
2023-05-11T07:28:45.587Z,3.15
2023-05-11T07:31:13.174Z,3.50
2023-05-11T07:33:40.831Z,2.60
2023-05-11T07:36:08.147Z,2.47
2023-05-11T07:38:36.424Z,1.98
2023-05-11T07:41:06.494Z,0.90
2023-05-11T07:43:34.195Z,1.00
2023-05-11T07:46:01.387Z,1.23
2023-05-11T07:48:28.915Z,1.30
2023-05-11T07:50:56.175Z,1.50
2023-05-11T07:53:23.402Z,1.15
2023-05-11T07:55:50.793Z,1.10
2023-05-11T07:58:18.094Z,1.10
2023-05-11T08:00:45.284Z,1.02
2023-05-11T08:03:13.157Z,0.90
2023-05-11T08:05:40.542Z,1.20
2023-05-11T08:08:08.105Z,1.20
2023-05-11T08:10:36.531Z,1.20
2023-05-11T08:13:03.949Z,1.08
2023-05-11T08:15:31.404Z,0.88
2023-05-11T08:17:58.689Z,1.33
2023-05-11T08:20:26.846Z,1.20
2023-05-11T08:22:54.194Z,1.50
2023-05-11T08:25:21.450Z,2.10
2023-05-11T08:27:48.687Z,1.80
2023-05-11T08:30:16.293Z,1.58
2023-05-11T08:35:15.088Z,1.60
2023-05-11T08:37:42.368Z,1.50
2023-05-11T08:40:13.947Z,1.30
2023-05-11T08:42:46.777Z,1.40
2023-05-11T08:45:14.611Z,1.20
2023-05-11T08:47:42.268Z,1.40
2023-05-11T08:50:09.973Z,1.40
2023-05-11T08:52:37.900Z,1.80
2023-05-11T08:55:05.918Z,1.50
2023-05-11T08:57:35.370Z,1.90
2023-05-11T09:00:04.294Z,1.75
2023-05-11T09:02:32.680Z,1.58
2023-05-11T09:05:04.307Z,1.63
2023-05-11T09:07:35.783Z,1.45
2023-05-11T09:10:04.655Z,2.17
2023-05-11T09:12:32.021Z,2.33
2023-05-11T09:15:02.445Z,1.60
2023-05-11T09:17:30.103Z,1.88
2023-05-11T09:20:00.617Z,2.10
2023-05-11T09:22:30.591Z,2.10
2023-05-11T09:25:02.264Z,2.05
2023-05-11T09:27:29.623Z,1.73
2023-05-11T09:29:56.848Z,2.28
2023-05-11T09:32:24.541Z,2.40
2023-05-11T09:34:51.963Z,2.03
2023-05-11T09:37:19.723Z,2.15
2023-05-11T09:42:25.952Z,2.10
2023-05-11T09:44:54.030Z,2.88
2023-05-11T09:47:24.722Z,2.35
2023-05-11T09:49:51.968Z,2.75
2023-05-11T09:52:21.134Z,2.10
2023-05-11T09:54:52.905Z,2.33
2023-05-11T09:57:28.068Z,2.17
2023-05-11T10:00:00.366Z,2.25
2023-05-11T10:02:30.533Z,2.10
2023-05-11T10:05:00.799Z,2.17
2023-05-11T10:07:31.161Z,2.88
2023-05-11T10:10:01.935Z,2.03
2023-05-11T10:12:32.375Z,2.08
2023-05-11T10:15:08.395Z,2.50
2023-05-11T10:17:37.130Z,1.83
2023-05-11T10:20:06.782Z,2.20
2023-05-11T10:22:34.801Z,2.10
2023-05-11T10:25:03.062Z,2.10
2023-05-11T10:27:32.065Z,2.65
2023-05-11T10:30:00.674Z,2.10
2023-05-11T10:32:28.696Z,2.47
2023-05-11T10:34:57.116Z,2.08
2023-05-11T10:37:25.436Z,2.30
2023-05-11T10:39:52.910Z,2.42
2023-05-11T10:43:06.336Z,2.17
2023-05-11T10:46:16.918Z,1.98
2023-05-11T10:49:22.224Z,2.13
2023-05-11T10:52:13.321Z,3.03
2023-05-11T10:55:18.268Z,2.25
2023-05-11T10:58:09.641Z,2.30
2023-05-11T11:01:01.628Z,2.58
2023-05-11T11:03:29.090Z,2.00
2023-05-11T11:05:57.575Z,2.20
2023-05-11T11:08:26.616Z,1.88
2023-05-11T11:10:54.001Z,2.10
2023-05-11T11:13:23.352Z,2.10
2023-05-11T11:15:54.075Z,2.35
2023-05-11T11:18:26.252Z,2.22
2023-05-11T11:20:56.396Z,1.70
2023-05-11T11:23:42.477Z,2.03
2023-05-11T11:26:13.282Z,2.00
2023-05-11T11:28:58.404Z,1.75
2023-05-11T11:31:34.385Z,2.08
2023-05-11T11:34:30.070Z,2.10
2023-05-11T11:37:06.358Z,2.05
2023-05-11T11:39:43.010Z,2.00
2023-05-11T11:42:13.292Z,2.00
2023-05-11T11:44:43.557Z,2.25
2023-05-11T11:47:21.565Z,2.10
2023-05-11T11:49:55.938Z,2.00
2023-05-11T11:52:29.642Z,1.90
2023-05-11T11:55:02.701Z,1.95
2023-05-11T11:57:33.061Z,1.90
2023-05-11T12:00:01.701Z,2.00
2023-05-11T12:02:29.141Z,1.70
2023-05-11T12:05:24.443Z,2.13
2023-05-11T12:07:53.574Z,2.40
2023-05-11T12:10:22.900Z,2.10
2023-05-11T12:12:55.109Z,1.88
2023-05-11T12:15:27.714Z,1.90
2023-05-11T12:17:56.320Z,2.22
2023-05-11T12:20:24.422Z,2.17
2023-05-11T12:22:51.902Z,1.92
2023-05-11T12:25:20.984Z,2.63
2023-05-11T12:28:03.278Z,2.08
2023-05-11T12:30:33.116Z,2.15
2023-05-11T12:33:04.356Z,2.42
2023-05-11T12:35:34.664Z,2.53
2023-05-11T12:40:31.548Z,2.85
2023-05-11T12:43:00.719Z,2.67
2023-05-11T12:45:29.425Z,2.83
2023-05-11T12:47:58.614Z,2.67
2023-05-11T12:50:25.965Z,2.63
2023-05-11T12:52:53.281Z,2.40
2023-05-11T12:55:31.234Z,2.35
2023-05-11T12:58:15.543Z,10.55
2023-05-11T13:01:00.106Z,3.60
2023-05-11T13:03:34.279Z,2.38
2023-05-11T13:06:12.756Z,2.50
2023-05-11T13:08:45.169Z,2.47
2023-05-11T13:11:26.804Z,2.80
2023-05-11T13:13:57.089Z,2.85
2023-05-11T13:16:33.703Z,3.30
2023-05-11T13:19:08.567Z,2.65
2023-05-11T13:21:36.368Z,1.95
2023-05-11T13:24:04.148Z,2.15
2023-05-11T13:26:32.683Z,2.17
2023-05-11T13:29:10.311Z,2.45
2023-05-11T13:31:50.128Z,2.50
2023-05-11T13:34:19.217Z,2.53
2023-05-11T13:36:47.199Z,1.90
2023-05-11T13:39:14.495Z,2.33
2023-05-11T13:41:41.809Z,2.47
2023-05-11T13:44:09.117Z,2.35
2023-05-11T13:46:36.474Z,2.05
2023-05-11T13:49:04.842Z,2.00
2023-05-11T13:51:32.557Z,1.90
2023-05-11T13:54:02.531Z,1.67
2023-05-11T13:56:30.127Z,2.13
2023-05-11T13:58:59.857Z,2.00
2023-05-11T14:01:27.696Z,2.00
2023-05-11T14:03:56.131Z,1.83
2023-05-11T14:06:25.249Z,1.65
2023-05-11T14:08:53.256Z,2.75
2023-05-11T14:11:21.551Z,2.00
2023-05-11T14:13:49.007Z,1.77
2023-05-11T14:16:16.547Z,1.25
2023-05-11T14:18:44.492Z,1.60
2023-05-11T14:21:12.192Z,1.50
2023-05-11T14:23:43.142Z,1.60
2023-05-11T14:26:14.689Z,1.80
2023-05-11T14:28:42.334Z,1.55
2023-05-11T14:31:10.016Z,1.55
2023-05-11T14:33:37.369Z,1.70
2023-05-11T14:36:04.984Z,1.67
2023-05-11T14:38:32.300Z,1.77
2023-05-11T14:41:00.233Z,1.75
2023-05-11T14:43:27.650Z,1.40
2023-05-11T14:45:55.243Z,1.88
2023-05-11T14:48:23.310Z,1.75
2023-05-11T14:50:50.543Z,2.33
2023-05-11T14:53:18.262Z,1.80
2023-05-11T14:55:45.593Z,1.70
2023-05-11T14:58:12.800Z,1.55
2023-05-11T15:00:40.467Z,1.40
2023-05-11T15:03:10.733Z,1.50
2023-05-11T15:05:38.665Z,1.90
2023-05-11T15:08:12.914Z,1.63
2023-05-11T15:10:42.929Z,1.80
2023-05-11T15:13:10.357Z,1.80
2023-05-11T15:15:37.913Z,1.73
2023-05-11T15:18:05.305Z,1.58
2023-05-11T15:20:32.597Z,1.48
2023-05-11T15:22:59.912Z,1.50
2023-05-11T15:25:27.176Z,1.60
2023-05-11T15:27:54.444Z,1.80
2023-05-11T15:30:21.989Z,1.45
2023-05-11T15:32:49.336Z,1.17
2023-05-11T15:35:17.294Z,1.52
2023-05-11T15:37:44.730Z,1.40
2023-05-11T15:40:13.561Z,1.55
2023-05-11T15:42:41.220Z,1.30
2023-05-11T15:45:08.891Z,1.58
2023-05-11T15:47:36.062Z,1.67
2023-05-11T15:50:03.463Z,1.77
2023-05-11T15:52:30.801Z,1.33
2023-05-11T15:54:57.942Z,1.17
2023-05-11T15:57:25.206Z,1.88
2023-05-11T15:59:52.521Z,1.45
2023-05-11T16:02:19.815Z,1.48
2023-05-11T16:04:47.064Z,1.60
2023-05-11T16:07:14.371Z,1.75
2023-05-11T16:09:41.672Z,1.85
2023-05-11T16:12:09.197Z,1.73
2023-05-11T16:14:36.634Z,1.48
2023-05-11T16:17:04.259Z,2.10
2023-05-11T16:19:32.528Z,1.35
2023-05-11T16:21:59.731Z,1.83
2023-05-11T16:24:27.153Z,1.50
2023-05-11T16:26:54.349Z,1.58
2023-05-11T16:29:21.625Z,2.08
2023-05-11T16:31:48.949Z,1.90
2023-05-11T16:34:16.234Z,1.33
2023-05-11T16:36:44.737Z,1.70
2023-05-11T16:39:12.692Z,1.60
2023-05-11T16:41:40.133Z,1.45
2023-05-11T16:44:07.537Z,1.50
2023-05-11T16:46:34.843Z,1.77
2023-05-11T16:49:02.345Z,1.55
2023-05-11T16:51:29.892Z,1.90
2023-05-11T16:53:57.344Z,1.50
2023-05-11T16:56:24.788Z,1.58
2023-05-11T16:58:52.704Z,1.73
2023-05-11T17:01:20.569Z,1.50
2023-05-11T17:03:48.099Z,1.52
2023-05-11T17:06:19.038Z,1.42
2023-05-11T17:08:47.931Z,2.00
2023-05-11T17:11:15.201Z,1.90
2023-05-11T17:13:42.512Z,1.60
2023-05-11T17:16:09.922Z,1.38
2023-05-11T17:18:37.319Z,1.50
2023-05-11T17:21:04.808Z,1.73
2023-05-11T17:23:32.868Z,1.70
2023-05-11T17:26:00.255Z,1.58
2023-05-11T17:28:27.615Z,1.77
2023-05-11T17:30:54.835Z,1.73
2023-05-11T17:33:23.536Z,1.50
2023-05-11T17:35:51.453Z,1.60
2023-05-11T17:38:18.815Z,1.50
2023-05-11T17:40:46.269Z,1.70
2023-05-11T17:43:13.431Z,1.67
2023-05-11T17:45:40.748Z,1.83
2023-05-11T17:48:08.075Z,1.75
2023-05-11T17:50:37.033Z,1.90
2023-05-11T17:53:05.417Z,1.60
2023-05-11T17:55:32.782Z,1.80
2023-05-11T17:58:00.055Z,1.83
2023-05-11T18:00:27.900Z,1.50
2023-05-11T18:02:55.737Z,2.03
2023-05-11T18:05:28.126Z,1.90
2023-05-11T18:08:02.898Z,1.90
2023-05-11T18:10:30.297Z,1.70
2023-05-11T18:12:57.528Z,1.90
2023-05-11T18:15:24.799Z,2.03
2023-05-11T18:17:54.251Z,2.10
2023-05-11T18:20:21.709Z,2.27
2023-05-11T18:22:49.775Z,1.40
2023-05-11T18:25:17.426Z,2.10
2023-05-11T18:27:44.682Z,1.92
2023-05-11T18:30:12.517Z,2.00
2023-05-11T18:32:39.904Z,2.13
2023-05-11T18:35:07.743Z,1.95
2023-05-11T18:37:36.458Z,2.50
2023-05-11T18:40:06.377Z,2.58
2023-05-11T18:42:33.738Z,2.17
2023-05-11T18:45:01.109Z,2.33
2023-05-11T18:47:28.480Z,2.30
2023-05-11T18:49:57.484Z,2.30
2023-05-11T18:52:24.943Z,3.25
2023-05-11T18:54:52.135Z,2.35
2023-05-11T18:57:21.022Z,2.42
2023-05-11T18:59:48.651Z,1.90
2023-05-11T19:02:16.207Z,1.75
2023-05-11T19:04:44.013Z,2.25
2023-05-11T19:07:11.590Z,2.00
2023-05-11T19:09:38.803Z,2.45
2023-05-11T19:12:06.942Z,2.70
2023-05-11T19:14:34.941Z,2.22
2023-05-11T19:17:04.688Z,2.47
2023-05-11T19:19:32.097Z,2.55
2023-05-11T19:21:59.933Z,2.30
2023-05-11T19:24:27.603Z,2.88
2023-05-11T19:27:05.911Z,2.00
2023-05-11T19:29:35.537Z,2.28
2023-05-11T19:32:03.723Z,2.28
2023-05-11T19:34:31.222Z,2.72
2023-05-11T19:36:58.555Z,1.90
2023-05-11T19:39:26.864Z,1.90
2023-05-11T19:41:54.190Z,2.20
2023-05-11T19:44:21.661Z,2.10
2023-05-11T19:46:48.899Z,2.55
2023-05-11T19:49:16.781Z,2.10
2023-05-11T19:51:44.225Z,2.25
2023-05-11T19:54:11.701Z,2.10
2023-05-11T19:56:39.408Z,2.17
2023-05-11T19:59:06.896Z,1.92
2023-05-11T20:01:35.437Z,1.98
2023-05-11T20:04:02.957Z,2.10
2023-05-11T20:06:30.891Z,2.28
2023-05-11T20:08:58.232Z,1.85
2023-05-11T20:11:26.203Z,1.90
2023-05-11T20:13:53.972Z,1.73
2023-05-11T20:16:21.548Z,1.50
2023-05-11T20:18:48.866Z,2.05
2023-05-11T20:21:16.752Z,1.63
2023-05-11T20:23:44.337Z,1.92
2023-05-11T20:26:11.702Z,1.58
2023-05-11T20:28:39.823Z,2.70
2023-05-11T20:31:07.370Z,1.90
2023-05-11T20:36:05.326Z,2.05
2023-05-11T20:38:32.980Z,2.15
2023-05-11T20:41:00.243Z,2.10
2023-05-11T20:43:27.999Z,2.35
2023-05-11T20:45:55.677Z,2.20
2023-05-11T20:48:35.887Z,2.13
2023-05-11T20:51:06.199Z,2.17
2023-05-11T20:53:33.465Z,2.28
2023-05-11T20:56:02.572Z,2.42
2023-05-11T20:58:31.654Z,2.70
2023-05-11T21:00:59.130Z,2.13
2023-05-11T21:03:27.794Z,2.63
2023-05-11T21:05:56.288Z,3.72
2023-05-11T21:08:23.828Z,2.03
2023-05-11T21:10:51.218Z,2.42
2023-05-11T21:13:18.826Z,2.10
2023-05-11T21:15:46.211Z,15.90
2023-05-11T21:18:13.571Z,7.28
2023-05-11T21:20:41.128Z,3.22
2023-05-11T21:23:08.657Z,3.00
2023-05-11T21:25:36.345Z,2.95
2023-05-11T21:28:04.984Z,3.22
2023-05-11T21:30:32.296Z,2.88
2023-05-11T21:32:59.588Z,2.30
2023-05-11T21:35:27.136Z,1.83
2023-05-11T21:37:54.410Z,2.05
2023-05-11T21:40:21.818Z,2.13
2023-05-11T21:42:49.215Z,2.50
2023-05-11T21:45:16.659Z,2.17
2023-05-11T21:47:44.116Z,1.90
2023-05-11T21:50:12.200Z,1.98
2023-05-11T21:52:39.509Z,2.20
2023-05-11T21:55:07.427Z,2.10
2023-05-11T21:57:34.669Z,1.92
2023-05-11T22:00:02.404Z,2.03
2023-05-11T22:02:32.659Z,2.00
2023-05-11T22:04:59.977Z,2.05
2023-05-11T22:07:27.175Z,2.17
2023-05-11T22:09:54.400Z,2.60
2023-05-11T22:12:21.958Z,2.20
2023-05-11T22:14:49.465Z,2.15
2023-05-11T22:17:16.762Z,2.17
2023-05-11T22:19:44.051Z,1.85
2023-05-11T22:22:11.304Z,1.98
2023-05-11T22:24:38.569Z,2.78
2023-05-11T22:27:08.599Z,1.67
2023-05-11T22:29:36.393Z,2.33
2023-05-11T22:32:03.746Z,2.10
2023-05-11T22:34:31.059Z,2.95
2023-05-11T22:37:00.243Z,1.90
2023-05-11T22:39:28.816Z,2.00
2023-05-11T22:41:56.631Z,1.98
2023-05-11T22:44:24.057Z,2.80
2023-05-11T22:46:51.270Z,2.00
2023-05-11T22:49:18.488Z,1.98
2023-05-11T22:51:45.736Z,1.90
2023-05-11T22:54:14.607Z,1.85
2023-05-11T22:56:43.041Z,1.60
2023-05-11T22:59:10.262Z,2.13
2023-05-11T23:01:37.682Z,1.88
2023-05-11T23:04:04.970Z,1.92
2023-05-11T23:06:32.786Z,2.17
2023-05-11T23:08:59.949Z,3.13
2023-05-11T23:11:27.279Z,2.25
2023-05-11T23:13:54.508Z,2.40
2023-05-11T23:16:22.317Z,2.80
2023-05-11T23:18:49.809Z,3.05
2023-05-11T23:21:17.926Z,4.07
2023-05-11T23:23:45.141Z,8.82
2023-05-11T23:26:12.884Z,10.52
2023-05-11T23:28:40.142Z,9.90
2023-05-11T23:31:07.370Z,11.25
2023-05-11T23:33:35.032Z,10.48
2023-05-11T23:36:02.252Z,15.02
2023-05-11T23:38:29.836Z,14.32
2023-05-11T23:40:57.108Z,13.48
2023-05-11T23:43:24.368Z,12.77
2023-05-11T23:45:52.203Z,11.80
2023-05-11T23:48:19.575Z,13.10
2023-05-11T23:50:46.888Z,8.85
2023-05-11T23:53:14.223Z,9.82
2023-05-11T23:55:41.532Z,9.10
2023-05-11T23:58:08.749Z,8.45
